Capitol Logistics 513


RKSI
Incheon International Airport
Seoul, KR
RJAA
Tokyo-Narita International Airport
Tokyo, JP

Route Details

Aircraft Information
Primary: Boeing 767-300BDSF
Backup: Not Available
Route Data
Distance: 680nm
Sched. Duration: 2h 00m
Avg. Duration: 1h 74m (-26m)
Times Flown: 2
Recm'd Route: SEL1S SEL G597 KAE Y437 TENAS L512 GTC Y303 KAMOH Y301 SHELY Y30 MELON NORMA
Planned Altitude: 39,000ft
Origin Wx: RKSI 260730Z 29007KT CAVOK 16/06 Q1019 NOSIG
Dest. Wx: RJAA 260730Z 15005KT 9999 FEW030 17/10 Q1015 NOSIG RMK 1CU030 A2999
Notes:

Financial History
Total Freight: 219,232lbs
Average Load: 109,616lbs/flt
Fuel Used: 42,415lbs
Avg. Fuel Used: 21,208lbs/flt
Fuel Expense: $33,932
Avg. Fuel Expense: $16,966
Avg. Fuel Cost: $0.80/lbs
Total Gross Income: $228,975
Pilot Pay: $388
Total Expenses: $20,540
Total Revenue: $173,568
Average Revenue: $114,487.60